sensor_id;sensor_type;location;lat;lon;timestamp;temperature;humidity
49224;DHT22;35050;51.316;5.994;2024-02-21T00:00:07;9.70;99.90
49224;DHT22;35050;51.316;5.994;2024-02-21T00:02:32;9.70;99.90
49224;DHT22;35050;51.316;5.994;2024-02-21T00:04:58;9.80;99.90
49224;DHT22;35050;51.316;5.994;2024-02-21T00:07:24;9.80;99.90
49224;DHT22;35050;51.316;5.994;2024-02-21T00:09:49;9.80;99.90
49224;DHT22;35050;51.316;5.994;2024-02-21T00:12:15;9.80;99.90
49224;DHT22;35050;51.316;5.994;2024-02-21T00:14:41;9.80;99.90
49224;DHT22;35050;51.316;5.994;2024-02-21T00:17:06;9.80;99.90
49224;DHT22;35050;51.316;5.994;2024-02-21T00:19:34;9.70;99.90
49224;DHT22;35050;51.316;5.994;2024-02-21T00:21:59;9.80;99.90
49224;DHT22;35050;51.316;5.994;2024-02-21T00:24:25;9.80;99.90
49224;DHT22;35050;51.316;5.994;2024-02-21T00:26:50;9.80;99.90
49224;DHT22;35050;51.316;5.994;2024-02-21T00:29:16;9.70;99.90
49224;DHT22;35050;51.316;5.994;2024-02-21T00:31:42;9.80;99.90
49224;DHT22;35050;51.316;5.994;2024-02-21T00:34:07;9.80;99.90
49224;DHT22;35050;51.316;5.994;2024-02-21T00:36:33;9.80;99.90
49224;DHT22;35050;51.316;5.994;2024-02-21T00:38:58;9.80;99.90
49224;DHT22;35050;51.316;5.994;2024-02-21T00:41:24;9.70;99.90
49224;DHT22;35050;51.316;5.994;2024-02-21T00:43:50;9.70;99.90
49224;DHT22;35050;51.316;5.994;2024-02-21T00:46:16;9.80;99.90
49224;DHT22;35050;51.316;5.994;2024-02-21T00:48:41;9.70;99.90
49224;DHT22;35050;51.316;5.994;2024-02-21T00:51:07;9.80;99.90
49224;DHT22;35050;51.316;5.994;2024-02-21T00:53:32;9.80;99.90
49224;DHT22;35050;51.316;5.994;2024-02-21T00:55:58;9.70;99.90
49224;DHT22;35050;51.316;5.994;2024-02-21T00:58:24;9.70;99.90
49224;DHT22;35050;51.316;5.994;2024-02-21T01:00:49;9.80;99.90
49224;DHT22;35050;51.316;5.994;2024-02-21T01:03:15;9.80;99.90
49224;DHT22;35050;51.316;5.994;2024-02-21T01:05:40;9.80;99.90
49224;DHT22;35050;51.316;5.994;2024-02-21T01:08:06;9.80;99.90
49224;DHT22;35050;51.316;5.994;2024-02-21T01:10:32;9.90;99.90
49224;DHT22;35050;51.316;5.994;2024-02-21T01:12:57;9.80;99.90
49224;DHT22;35050;51.316;5.994;2024-02-21T01:15:23;9.80;99.90
49224;DHT22;35050;51.316;5.994;2024-02-21T01:17:49;9.80;99.90
49224;DHT22;35050;51.316;5.994;2024-02-21T01:20:20;9.80;99.90
49224;DHT22;35050;51.316;5.994;2024-02-21T01:22:46;9.70;99.90
49224;DHT22;35050;51.316;5.994;2024-02-21T01:25:11;9.80;99.90
49224;DHT22;35050;51.316;5.994;2024-02-21T01:27:37;9.80;99.90
49224;DHT22;35050;51.316;5.994;2024-02-21T01:30:03;9.80;99.90
49224;DHT22;35050;51.316;5.994;2024-02-21T01:32:29;9.90;99.90
49224;DHT22;35050;51.316;5.994;2024-02-21T01:34:55;9.80;99.90
49224;DHT22;35050;51.316;5.994;2024-02-21T01:37:20;9.80;99.90
49224;DHT22;35050;51.316;5.994;2024-02-21T01:39:46;9.80;99.90
49224;DHT22;35050;51.316;5.994;2024-02-21T01:42:12;9.80;99.90
49224;DHT22;35050;51.316;5.994;2024-02-21T01:44:38;9.80;99.90
49224;DHT22;35050;51.316;5.994;2024-02-21T01:47:03;9.70;99.90
49224;DHT22;35050;51.316;5.994;2024-02-21T01:49:29;9.80;99.90
49224;DHT22;35050;51.316;5.994;2024-02-21T01:51:55;9.70;99.90
49224;DHT22;35050;51.316;5.994;2024-02-21T01:54:21;9.70;99.90
49224;DHT22;35050;51.316;5.994;2024-02-21T01:56:48;9.70;99.90
49224;DHT22;35050;51.316;5.994;2024-02-21T01:59:15;9.70;99.90
49224;DHT22;35050;51.316;5.994;2024-02-21T02:01:41;9.70;99.90
49224;DHT22;35050;51.316;5.994;2024-02-21T02:04:07;9.70;99.90
49224;DHT22;35050;51.316;5.994;2024-02-21T02:06:34;9.70;99.90
49224;DHT22;35050;51.316;5.994;2024-02-21T02:09:00;9.70;99.90
49224;DHT22;35050;51.316;5.994;2024-02-21T02:11:26;9.70;99.90
49224;DHT22;35050;51.316;5.994;2024-02-21T02:13:51;9.70;99.90
49224;DHT22;35050;51.316;5.994;2024-02-21T02:16:17;9.60;99.90
49224;DHT22;35050;51.316;5.994;2024-02-21T02:18:42;9.70;99.90
49224;DHT22;35050;51.316;5.994;2024-02-21T02:21:13;9.60;99.90
49224;DHT22;35050;51.316;5.994;2024-02-21T02:23:41;9.70;99.90
49224;DHT22;35050;51.316;5.994;2024-02-21T02:26:07;9.80;99.90
49224;DHT22;35050;51.316;5.994;2024-02-21T02:28:33;9.70;99.90
49224;DHT22;35050;51.316;5.994;2024-02-21T02:30:59;9.70;99.90
49224;DHT22;35050;51.316;5.994;2024-02-21T02:33:24;9.70;99.90
49224;DHT22;35050;51.316;5.994;2024-02-21T02:35:50;9.70;99.90
49224;DHT22;35050;51.316;5.994;2024-02-21T02:38:15;9.70;99.90
49224;DHT22;35050;51.316;5.994;2024-02-21T02:40:42;9.80;99.90
49224;DHT22;35050;51.316;5.994;2024-02-21T02:43:07;9.70;99.90
49224;DHT22;35050;51.316;5.994;2024-02-21T02:45:33;9.70;99.90
49224;DHT22;35050;51.316;5.994;2024-02-21T02:47:59;9.70;99.90
49224;DHT22;35050;51.316;5.994;2024-02-21T02:50:26;9.60;99.90
49224;DHT22;35050;51.316;5.994;2024-02-21T02:52:52;9.70;99.90
49224;DHT22;35050;51.316;5.994;2024-02-21T02:55:18;9.60;99.90
49224;DHT22;35050;51.316;5.994;2024-02-21T02:57:44;9.70;99.90
49224;DHT22;35050;51.316;5.994;2024-02-21T03:00:11;9.70;99.90
49224;DHT22;35050;51.316;5.994;2024-02-21T03:02:38;9.70;99.90
49224;DHT22;35050;51.316;5.994;2024-02-21T03:05:13;9.70;99.90
49224;DHT22;35050;51.316;5.994;2024-02-21T03:07:40;9.70;99.90
49224;DHT22;35050;51.316;5.994;2024-02-21T03:10:05;9.70;99.90
49224;DHT22;35050;51.316;5.994;2024-02-21T03:12:31;9.70;99.90
49224;DHT22;35050;51.316;5.994;2024-02-21T03:14:57;9.70;99.90
49224;DHT22;35050;51.316;5.994;2024-02-21T03:17:23;9.70;99.90
49224;DHT22;35050;51.316;5.994;2024-02-21T03:19:48;9.70;99.90
49224;DHT22;35050;51.316;5.994;2024-02-21T03:22:15;9.60;99.90
49224;DHT22;35050;51.316;5.994;2024-02-21T03:24:42;9.70;99.90
49224;DHT22;35050;51.316;5.994;2024-02-21T03:27:07;9.60;99.90
49224;DHT22;35050;51.316;5.994;2024-02-21T03:29:33;9.60;99.90
49224;DHT22;35050;51.316;5.994;2024-02-21T03:31:59;9.60;99.90
49224;DHT22;35050;51.316;5.994;2024-02-21T03:34:25;9.50;99.90
49224;DHT22;35050;51.316;5.994;2024-02-21T03:36:50;9.50;99.90
49224;DHT22;35050;51.316;5.994;2024-02-21T03:39:16;9.60;99.90
49224;DHT22;35050;51.316;5.994;2024-02-21T03:41:42;9.60;99.90
49224;DHT22;35050;51.316;5.994;2024-02-21T03:44:07;9.60;99.90
49224;DHT22;35050;51.316;5.994;2024-02-21T03:46:33;9.50;99.90
49224;DHT22;35050;51.316;5.994;2024-02-21T03:48:58;9.60;99.90
49224;DHT22;35050;51.316;5.994;2024-02-21T03:51:26;9.60;99.90
49224;DHT22;35050;51.316;5.994;2024-02-21T03:53:51;9.50;99.90
49224;DHT22;35050;51.316;5.994;2024-02-21T03:56:17;9.60;99.90
49224;DHT22;35050;51.316;5.994;2024-02-21T03:58:43;9.60;99.90
49224;DHT22;35050;51.316;5.994;2024-02-21T04:01:08;9.60;99.90
49224;DHT22;35050;51.316;5.994;2024-02-21T04:03:34;9.60;99.90
49224;DHT22;35050;51.316;5.994;2024-02-21T04:06:00;9.50;99.90
49224;DHT22;35050;51.316;5.994;2024-02-21T04:08:26;9.60;99.90
49224;DHT22;35050;51.316;5.994;2024-02-21T04:10:51;9.50;99.90
49224;DHT22;35050;51.316;5.994;2024-02-21T04:13:17;9.60;99.90
49224;DHT22;35050;51.316;5.994;2024-02-21T04:15:43;9.60;99.90
49224;DHT22;35050;51.316;5.994;2024-02-21T04:18:08;9.60;99.90
49224;DHT22;35050;51.316;5.994;2024-02-21T04:20:34;9.60;99.90
49224;DHT22;35050;51.316;5.994;2024-02-21T04:23:00;9.60;99.90
49224;DHT22;35050;51.316;5.994;2024-02-21T04:25:26;9.50;99.90
49224;DHT22;35050;51.316;5.994;2024-02-21T04:27:52;9.40;99.90
49224;DHT22;35050;51.316;5.994;2024-02-21T04:30:17;9.40;99.90
49224;DHT22;35050;51.316;5.994;2024-02-21T04:32:43;9.40;99.90
49224;DHT22;35050;51.316;5.994;2024-02-21T04:35:09;9.40;99.90
49224;DHT22;35050;51.316;5.994;2024-02-21T04:37:34;9.30;99.90
49224;DHT22;35050;51.316;5.994;2024-02-21T04:40:00;9.30;99.90
49224;DHT22;35050;51.316;5.994;2024-02-21T04:42:26;9.30;99.90
49224;DHT22;35050;51.316;5.994;2024-02-21T04:44:52;9.30;99.90
49224;DHT22;35050;51.316;5.994;2024-02-21T04:47:18;9.30;99.90
49224;DHT22;35050;51.316;5.994;2024-02-21T04:49:45;9.30;99.90
49224;DHT22;35050;51.316;5.994;2024-02-21T04:52:11;9.30;99.90
49224;DHT22;35050;51.316;5.994;2024-02-21T04:54:37;9.30;99.90
49224;DHT22;35050;51.316;5.994;2024-02-21T04:57:02;9.40;99.90
49224;DHT22;35050;51.316;5.994;2024-02-21T04:59:28;9.30;99.90
49224;DHT22;35050;51.316;5.994;2024-02-21T05:01:55;9.40;99.90
49224;DHT22;35050;51.316;5.994;2024-02-21T05:04:20;9.30;99.90
49224;DHT22;35050;51.316;5.994;2024-02-21T05:06:46;9.30;99.90
49224;DHT22;35050;51.316;5.994;2024-02-21T05:09:12;9.30;99.90
49224;DHT22;35050;51.316;5.994;2024-02-21T05:11:38;9.30;99.90
49224;DHT22;35050;51.316;5.994;2024-02-21T05:14:04;9.30;99.90
49224;DHT22;35050;51.316;5.994;2024-02-21T05:16:30;9.30;99.90
49224;DHT22;35050;51.316;5.994;2024-02-21T05:18:56;9.30;99.90
49224;DHT22;35050;51.316;5.994;2024-02-21T05:21:25;9.40;99.90
49224;DHT22;35050;51.316;5.994;2024-02-21T05:23:51;9.30;99.90
49224;DHT22;35050;51.316;5.994;2024-02-21T05:26:21;9.30;99.90
49224;DHT22;35050;51.316;5.994;2024-02-21T05:28:47;9.30;99.90
49224;DHT22;35050;51.316;5.994;2024-02-21T05:31:13;9.30;99.90
49224;DHT22;35050;51.316;5.994;2024-02-21T05:33:39;9.30;99.90
49224;DHT22;35050;51.316;5.994;2024-02-21T05:36:05;9.30;99.90
49224;DHT22;35050;51.316;5.994;2024-02-21T05:38:31;9.30;99.90
49224;DHT22;35050;51.316;5.994;2024-02-21T05:40:57;9.30;99.90
49224;DHT22;35050;51.316;5.994;2024-02-21T05:43:22;9.20;99.90
49224;DHT22;35050;51.316;5.994;2024-02-21T05:45:48;9.20;99.90
49224;DHT22;35050;51.316;5.994;2024-02-21T05:48:14;9.20;99.90
49224;DHT22;35050;51.316;5.994;2024-02-21T05:50:39;9.20;99.90
49224;DHT22;35050;51.316;5.994;2024-02-21T05:53:05;9.30;99.90
49224;DHT22;35050;51.316;5.994;2024-02-21T05:55:30;9.20;99.90
49224;DHT22;35050;51.316;5.994;2024-02-21T05:57:56;9.20;99.90
49224;DHT22;35050;51.316;5.994;2024-02-21T06:00:22;9.20;99.90
49224;DHT22;35050;51.316;5.994;2024-02-21T06:02:47;9.10;99.90
49224;DHT22;35050;51.316;5.994;2024-02-21T06:05:13;9.20;99.90
49224;DHT22;35050;51.316;5.994;2024-02-21T06:07:39;9.20;99.90
49224;DHT22;35050;51.316;5.994;2024-02-21T06:10:06;9.20;99.90
49224;DHT22;35050;51.316;5.994;2024-02-21T06:12:32;9.20;99.90
49224;DHT22;35050;51.316;5.994;2024-02-21T06:14:58;9.10;99.90
49224;DHT22;35050;51.316;5.994;2024-02-21T06:17:23;9.10;99.90
49224;DHT22;35050;51.316;5.994;2024-02-21T06:19:49;9.10;99.90
49224;DHT22;35050;51.316;5.994;2024-02-21T06:22:14;9.10;99.90
49224;DHT22;35050;51.316;5.994;2024-02-21T06:24:40;9.10;99.90
49224;DHT22;35050;51.316;5.994;2024-02-21T06:27:06;9.10;99.90
49224;DHT22;35050;51.316;5.994;2024-02-21T06:29:32;9.10;99.90
49224;DHT22;35050;51.316;5.994;2024-02-21T06:31:58;9.10;99.90
49224;DHT22;35050;51.316;5.994;2024-02-21T06:34:24;9.00;99.90
49224;DHT22;35050;51.316;5.994;2024-02-21T06:36:50;9.00;99.90
49224;DHT22;35050;51.316;5.994;2024-02-21T06:39:16;9.00;99.90
49224;DHT22;35050;51.316;5.994;2024-02-21T06:41:42;9.00;99.90
49224;DHT22;35050;51.316;5.994;2024-02-21T06:44:09;9.00;99.90
49224;DHT22;35050;51.316;5.994;2024-02-21T06:46:34;9.00;99.90
49224;DHT22;35050;51.316;5.994;2024-02-21T06:49:00;9.00;99.90
49224;DHT22;35050;51.316;5.994;2024-02-21T06:51:26;9.00;99.90
49224;DHT22;35050;51.316;5.994;2024-02-21T06:53:53;9.00;99.90
49224;DHT22;35050;51.316;5.994;2024-02-21T06:56:19;9.00;99.90
49224;DHT22;35050;51.316;5.994;2024-02-21T06:58:45;9.10;99.90
49224;DHT22;35050;51.316;5.994;2024-02-21T07:01:11;9.10;99.90
49224;DHT22;35050;51.316;5.994;2024-02-21T07:03:36;9.10;99.90
49224;DHT22;35050;51.316;5.994;2024-02-21T07:06:02;9.10;99.90
49224;DHT22;35050;51.316;5.994;2024-02-21T07:08:28;9.20;99.90
49224;DHT22;35050;51.316;5.994;2024-02-21T07:10:54;9.10;99.90
49224;DHT22;35050;51.316;5.994;2024-02-21T07:13:19;9.10;99.90
49224;DHT22;35050;51.316;5.994;2024-02-21T07:15:45;9.20;99.90
49224;DHT22;35050;51.316;5.994;2024-02-21T07:18:11;9.20;99.90
49224;DHT22;35050;51.316;5.994;2024-02-21T07:20:37;9.10;99.90
49224;DHT22;35050;51.316;5.994;2024-02-21T07:23:03;9.10;99.90
49224;DHT22;35050;51.316;5.994;2024-02-21T07:25:29;9.10;99.90
49224;DHT22;35050;51.316;5.994;2024-02-21T07:27:55;9.10;99.90
49224;DHT22;35050;51.316;5.994;2024-02-21T07:30:21;9.10;99.90
49224;DHT22;35050;51.316;5.994;2024-02-21T07:32:49;9.10;99.90
49224;DHT22;35050;51.316;5.994;2024-02-21T07:35:15;9.20;99.90
49224;DHT22;35050;51.316;5.994;2024-02-21T07:37:41;9.10;99.90
49224;DHT22;35050;51.316;5.994;2024-02-21T07:40:12;9.10;99.90
49224;DHT22;35050;51.316;5.994;2024-02-21T07:42:37;9.20;99.90
49224;DHT22;35050;51.316;5.994;2024-02-21T07:45:03;9.10;99.90
49224;DHT22;35050;51.316;5.994;2024-02-21T07:47:29;9.10;99.90
49224;DHT22;35050;51.316;5.994;2024-02-21T07:49:55;9.10;99.90
49224;DHT22;35050;51.316;5.994;2024-02-21T07:52:20;9.10;99.90
49224;DHT22;35050;51.316;5.994;2024-02-21T07:54:46;9.10;99.90
49224;DHT22;35050;51.316;5.994;2024-02-21T07:57:12;9.10;99.90
49224;DHT22;35050;51.316;5.994;2024-02-21T07:59:37;9.10;99.90
49224;DHT22;35050;51.316;5.994;2024-02-21T08:02:03;9.10;99.90
49224;DHT22;35050;51.316;5.994;2024-02-21T08:04:32;9.10;99.90
49224;DHT22;35050;51.316;5.994;2024-02-21T08:06:57;9.10;99.90
49224;DHT22;35050;51.316;5.994;2024-02-21T08:09:26;9.00;99.90
49224;DHT22;35050;51.316;5.994;2024-02-21T08:11:54;9.00;99.90
49224;DHT22;35050;51.316;5.994;2024-02-21T08:14:20;9.00;99.90
49224;DHT22;35050;51.316;5.994;2024-02-21T08:16:45;9.10;99.90
49224;DHT22;35050;51.316;5.994;2024-02-21T08:19:11;9.10;99.90
49224;DHT22;35050;51.316;5.994;2024-02-21T08:21:37;9.00;99.90
49224;DHT22;35050;51.316;5.994;2024-02-21T08:24:02;9.00;99.90
49224;DHT22;35050;51.316;5.994;2024-02-21T08:26:28;9.00;99.90
49224;DHT22;35050;51.316;5.994;2024-02-21T08:28:56;9.00;99.90
49224;DHT22;35050;51.316;5.994;2024-02-21T08:31:25;9.00;99.90
49224;DHT22;35050;51.316;5.994;2024-02-21T08:33:59;9.00;99.90
49224;DHT22;35050;51.316;5.994;2024-02-21T08:36:32;9.00;99.90
49224;DHT22;35050;51.316;5.994;2024-02-21T08:38:59;9.10;99.90
49224;DHT22;35050;51.316;5.994;2024-02-21T08:41:25;9.00;99.90
49224;DHT22;35050;51.316;5.994;2024-02-21T08:43:52;9.10;99.90
49224;DHT22;35050;51.316;5.994;2024-02-21T08:46:19;9.10;99.90
49224;DHT22;35050;51.316;5.994;2024-02-21T08:48:45;9.10;99.90
49224;DHT22;35050;51.316;5.994;2024-02-21T08:51:12;9.00;99.90
49224;DHT22;35050;51.316;5.994;2024-02-21T08:53:38;9.10;99.90
49224;DHT22;35050;51.316;5.994;2024-02-21T08:56:04;9.00;99.90
49224;DHT22;35050;51.316;5.994;2024-02-21T08:58:30;9.00;99.90
49224;DHT22;35050;51.316;5.994;2024-02-21T09:00:56;9.00;99.90
49224;DHT22;35050;51.316;5.994;2024-02-21T09:03:22;9.00;99.90
49224;DHT22;35050;51.316;5.994;2024-02-21T09:05:48;9.10;99.90
49224;DHT22;35050;51.316;5.994;2024-02-21T09:08:13;9.10;99.90
49224;DHT22;35050;51.316;5.994;2024-02-21T09:10:40;9.10;99.90
49224;DHT22;35050;51.316;5.994;2024-02-21T09:13:05;9.00;99.90
49224;DHT22;35050;51.316;5.994;2024-02-21T09:15:33;9.00;99.90
49224;DHT22;35050;51.316;5.994;2024-02-21T09:17:58;9.10;99.90
49224;DHT22;35050;51.316;5.994;2024-02-21T09:20:24;9.10;99.90
49224;DHT22;35050;51.316;5.994;2024-02-21T09:22:50;9.00;99.90
49224;DHT22;35050;51.316;5.994;2024-02-21T09:25:15;9.20;99.90
49224;DHT22;35050;51.316;5.994;2024-02-21T09:27:43;9.20;99.90
49224;DHT22;35050;51.316;5.994;2024-02-21T09:30:09;9.30;99.90
49224;DHT22;35050;51.316;5.994;2024-02-21T09:32:35;9.30;99.90
49224;DHT22;35050;51.316;5.994;2024-02-21T09:35:01;9.40;99.90
49224;DHT22;35050;51.316;5.994;2024-02-21T09:37:27;9.50;99.90
49224;DHT22;35050;51.316;5.994;2024-02-21T09:39:53;9.40;99.90
49224;DHT22;35050;51.316;5.994;2024-02-21T09:42:21;9.40;99.90
49224;DHT22;35050;51.316;5.994;2024-02-21T09:44:48;9.50;99.90
49224;DHT22;35050;51.316;5.994;2024-02-21T09:47:25;9.50;99.90
49224;DHT22;35050;51.316;5.994;2024-02-21T09:49:56;9.50;99.90
49224;DHT22;35050;51.316;5.994;2024-02-21T09:52:23;9.60;99.90
49224;DHT22;35050;51.316;5.994;2024-02-21T09:54:50;9.60;99.90
49224;DHT22;35050;51.316;5.994;2024-02-21T09:57:18;9.60;99.90
49224;DHT22;35050;51.316;5.994;2024-02-21T09:59:44;9.70;99.90
49224;DHT22;35050;51.316;5.994;2024-02-21T10:02:11;9.60;99.90
49224;DHT22;35050;51.316;5.994;2024-02-21T10:04:39;9.70;99.90
49224;DHT22;35050;51.316;5.994;2024-02-21T10:07:05;9.70;99.90
49224;DHT22;35050;51.316;5.994;2024-02-21T10:09:30;9.80;99.90
49224;DHT22;35050;51.316;5.994;2024-02-21T10:12:10;9.80;99.90
49224;DHT22;35050;51.316;5.994;2024-02-21T10:14:36;9.80;99.90
49224;DHT22;35050;51.316;5.994;2024-02-21T10:17:02;9.90;99.90
49224;DHT22;35050;51.316;5.994;2024-02-21T10:19:29;9.90;99.90
49224;DHT22;35050;51.316;5.994;2024-02-21T10:22:08;9.90;99.90
49224;DHT22;35050;51.316;5.994;2024-02-21T10:24:34;10.00;99.90
49224;DHT22;35050;51.316;5.994;2024-02-21T10:27:05;9.90;99.90
49224;DHT22;35050;51.316;5.994;2024-02-21T10:29:37;9.90;99.90
49224;DHT22;35050;51.316;5.994;2024-02-21T10:32:10;9.90;99.90
49224;DHT22;35050;51.316;5.994;2024-02-21T10:34:38;10.00;99.90
49224;DHT22;35050;51.316;5.994;2024-02-21T10:37:05;9.90;99.90
49224;DHT22;35050;51.316;5.994;2024-02-21T10:39:36;10.00;99.90
49224;DHT22;35050;51.316;5.994;2024-02-21T10:42:03;10.00;99.90
49224;DHT22;35050;51.316;5.994;2024-02-21T10:44:41;10.00;99.90
49224;DHT22;35050;51.316;5.994;2024-02-21T10:47:11;10.00;99.90
49224;DHT22;35050;51.316;5.994;2024-02-21T10:49:41;10.00;99.90
49224;DHT22;35050;51.316;5.994;2024-02-21T10:52:32;10.10;99.90
49224;DHT22;35050;51.316;5.994;2024-02-21T10:57:27;10.20;99.90
49224;DHT22;35050;51.316;5.994;2024-02-21T10:59:55;10.20;99.90
49224;DHT22;35050;51.316;5.994;2024-02-21T11:02:21;10.20;99.90
49224;DHT22;35050;51.316;5.994;2024-02-21T11:04:47;10.20;99.90
49224;DHT22;35050;51.316;5.994;2024-02-21T11:07:14;10.20;99.90
49224;DHT22;35050;51.316;5.994;2024-02-21T11:09:50;10.30;99.90
49224;DHT22;35050;51.316;5.994;2024-02-21T11:12:20;10.40;99.90
49224;DHT22;35050;51.316;5.994;2024-02-21T11:14:46;10.30;99.90
49224;DHT22;35050;51.316;5.994;2024-02-21T11:17:20;10.30;99.90
49224;DHT22;35050;51.316;5.994;2024-02-21T11:19:52;10.40;99.90
49224;DHT22;35050;51.316;5.994;2024-02-21T11:22:18;10.40;99.90
49224;DHT22;35050;51.316;5.994;2024-02-21T11:24:45;10.50;99.90
49224;DHT22;35050;51.316;5.994;2024-02-21T11:27:21;10.70;99.90
49224;DHT22;35050;51.316;5.994;2024-02-21T11:29:49;10.60;99.90
49224;DHT22;35050;51.316;5.994;2024-02-21T11:32:19;10.60;99.90
49224;DHT22;35050;51.316;5.994;2024-02-21T11:34:55;10.60;99.90
49224;DHT22;35050;51.316;5.994;2024-02-21T11:37:20;10.60;99.90
49224;DHT22;35050;51.316;5.994;2024-02-21T11:39:46;10.70;99.90
49224;DHT22;35050;51.316;5.994;2024-02-21T11:42:12;10.80;99.90
49224;DHT22;35050;51.316;5.994;2024-02-21T11:44:39;10.90;99.90
49224;DHT22;35050;51.316;5.994;2024-02-21T11:47:08;11.00;99.90
49224;DHT22;35050;51.316;5.994;2024-02-21T11:49:42;10.90;99.90
49224;DHT22;35050;51.316;5.994;2024-02-21T11:52:08;11.00;99.90
49224;DHT22;35050;51.316;5.994;2024-02-21T11:54:34;11.10;99.90
49224;DHT22;35050;51.316;5.994;2024-02-21T11:57:00;11.20;99.90
49224;DHT22;35050;51.316;5.994;2024-02-21T11:59:29;11.10;99.90
49224;DHT22;35050;51.316;5.994;2024-02-21T12:01:55;11.20;99.90
49224;DHT22;35050;51.316;5.994;2024-02-21T12:04:22;11.30;99.90
49224;DHT22;35050;51.316;5.994;2024-02-21T12:06:49;11.30;99.90
49224;DHT22;35050;51.316;5.994;2024-02-21T12:09:15;11.50;99.90
49224;DHT22;35050;51.316;5.994;2024-02-21T12:11:41;11.70;99.90
49224;DHT22;35050;51.316;5.994;2024-02-21T12:14:07;11.70;99.90
49224;DHT22;35050;51.316;5.994;2024-02-21T12:16:35;11.60;99.90
49224;DHT22;35050;51.316;5.994;2024-02-21T12:19:02;11.70;99.90
49224;DHT22;35050;51.316;5.994;2024-02-21T12:21:35;11.60;99.90
49224;DHT22;35050;51.316;5.994;2024-02-21T12:26:49;11.50;99.90
49224;DHT22;35050;51.316;5.994;2024-02-21T12:29:15;11.70;99.90
49224;DHT22;35050;51.316;5.994;2024-02-21T12:31:40;11.60;99.90
49224;DHT22;35050;51.316;5.994;2024-02-21T12:34:06;11.60;99.90
49224;DHT22;35050;51.316;5.994;2024-02-21T12:36:32;11.60;99.90
49224;DHT22;35050;51.316;5.994;2024-02-21T12:38:58;11.70;99.90
49224;DHT22;35050;51.316;5.994;2024-02-21T12:41:24;11.70;99.90
49224;DHT22;35050;51.316;5.994;2024-02-21T12:43:52;12.00;99.90
49224;DHT22;35050;51.316;5.994;2024-02-21T12:46:18;12.00;99.90
49224;DHT22;35050;51.316;5.994;2024-02-21T12:48:43;12.10;99.90
49224;DHT22;35050;51.316;5.994;2024-02-21T12:51:09;12.30;99.90
49224;DHT22;35050;51.316;5.994;2024-02-21T12:53:35;12.10;99.90
49224;DHT22;35050;51.316;5.994;2024-02-21T12:56:01;12.20;99.90
49224;DHT22;35050;51.316;5.994;2024-02-21T12:58:26;12.30;99.90
49224;DHT22;35050;51.316;5.994;2024-02-21T13:00:52;12.40;99.90
49224;DHT22;35050;51.316;5.994;2024-02-21T13:03:18;12.30;99.90
49224;DHT22;35050;51.316;5.994;2024-02-21T13:05:44;12.10;99.90
49224;DHT22;35050;51.316;5.994;2024-02-21T13:08:10;12.00;99.90
49224;DHT22;35050;51.316;5.994;2024-02-21T13:10:37;11.90;99.90
49224;DHT22;35050;51.316;5.994;2024-02-21T13:13:03;11.80;99.90
49224;DHT22;35050;51.316;5.994;2024-02-21T13:15:29;11.90;99.90
49224;DHT22;35050;51.316;5.994;2024-02-21T13:17:56;11.90;99.90
49224;DHT22;35050;51.316;5.994;2024-02-21T13:20:22;12.00;99.90
49224;DHT22;35050;51.316;5.994;2024-02-21T13:22:48;11.90;99.90
49224;DHT22;35050;51.316;5.994;2024-02-21T13:25:13;11.80;99.90
49224;DHT22;35050;51.316;5.994;2024-02-21T13:27:45;11.80;99.90
49224;DHT22;35050;51.316;5.994;2024-02-21T13:30:12;11.60;99.90
49224;DHT22;35050;51.316;5.994;2024-02-21T13:32:38;11.60;99.90
49224;DHT22;35050;51.316;5.994;2024-02-21T13:35:04;11.60;99.90
49224;DHT22;35050;51.316;5.994;2024-02-21T13:37:31;11.60;99.90
49224;DHT22;35050;51.316;5.994;2024-02-21T13:39:57;11.50;99.90
49224;DHT22;35050;51.316;5.994;2024-02-21T13:42:22;11.50;99.90
49224;DHT22;35050;51.316;5.994;2024-02-21T13:44:49;11.40;99.90
49224;DHT22;35050;51.316;5.994;2024-02-21T13:47:15;11.40;99.90
49224;DHT22;35050;51.316;5.994;2024-02-21T13:49:41;11.40;99.90
49224;DHT22;35050;51.316;5.994;2024-02-21T13:52:06;11.40;99.90
49224;DHT22;35050;51.316;5.994;2024-02-21T13:54:32;11.40;99.90
49224;DHT22;35050;51.316;5.994;2024-02-21T13:56:58;11.40;99.90
49224;DHT22;35050;51.316;5.994;2024-02-21T13:59:23;11.40;99.90
49224;DHT22;35050;51.316;5.994;2024-02-21T14:01:49;11.40;99.90
49224;DHT22;35050;51.316;5.994;2024-02-21T14:04:14;11.50;99.90
49224;DHT22;35050;51.316;5.994;2024-02-21T14:06:40;11.40;99.90
49224;DHT22;35050;51.316;5.994;2024-02-21T14:09:09;11.50;99.90
49224;DHT22;35050;51.316;5.994;2024-02-21T14:11:35;11.50;99.90
49224;DHT22;35050;51.316;5.994;2024-02-21T14:14:01;11.50;99.90
49224;DHT22;35050;51.316;5.994;2024-02-21T14:16:26;11.60;99.90
49224;DHT22;35050;51.316;5.994;2024-02-21T14:18:52;11.60;99.90
49224;DHT22;35050;51.316;5.994;2024-02-21T14:21:19;11.60;99.90
49224;DHT22;35050;51.316;5.994;2024-02-21T14:23:45;11.70;99.90
49224;DHT22;35050;51.316;5.994;2024-02-21T14:26:11;11.70;99.90
49224;DHT22;35050;51.316;5.994;2024-02-21T14:28:37;11.60;99.90
49224;DHT22;35050;51.316;5.994;2024-02-21T14:31:04;11.60;99.90
49224;DHT22;35050;51.316;5.994;2024-02-21T14:33:31;11.60;99.90
49224;DHT22;35050;51.316;5.994;2024-02-21T14:35:57;11.50;99.90
49224;DHT22;35050;51.316;5.994;2024-02-21T14:38:22;11.50;99.90
49224;DHT22;35050;51.316;5.994;2024-02-21T14:40:48;11.40;99.90
49224;DHT22;35050;51.316;5.994;2024-02-21T14:43:14;11.40;99.90
49224;DHT22;35050;51.316;5.994;2024-02-21T14:45:40;11.30;99.90
49224;DHT22;35050;51.316;5.994;2024-02-21T14:48:06;11.40;99.90
49224;DHT22;35050;51.316;5.994;2024-02-21T14:50:32;11.40;99.90
49224;DHT22;35050;51.316;5.994;2024-02-21T14:52:58;11.30;99.90
49224;DHT22;35050;51.316;5.994;2024-02-21T14:55:23;11.30;99.90
49224;DHT22;35050;51.316;5.994;2024-02-21T14:57:49;11.40;99.90
49224;DHT22;35050;51.316;5.994;2024-02-21T15:00:15;11.40;99.90
49224;DHT22;35050;51.316;5.994;2024-02-21T15:02:41;11.30;99.90
49224;DHT22;35050;51.316;5.994;2024-02-21T15:05:08;11.30;99.90
49224;DHT22;35050;51.316;5.994;2024-02-21T15:07:35;11.40;99.90
49224;DHT22;35050;51.316;5.994;2024-02-21T15:10:01;11.30;99.90
49224;DHT22;35050;51.316;5.994;2024-02-21T15:12:28;11.30;99.90
49224;DHT22;35050;51.316;5.994;2024-02-21T15:14:53;11.30;99.90
49224;DHT22;35050;51.316;5.994;2024-02-21T15:17:19;11.30;99.90
49224;DHT22;35050;51.316;5.994;2024-02-21T15:19:45;11.30;99.90
49224;DHT22;35050;51.316;5.994;2024-02-21T15:22:11;11.20;99.90
49224;DHT22;35050;51.316;5.994;2024-02-21T15:24:40;11.20;99.90
49224;DHT22;35050;51.316;5.994;2024-02-21T15:27:07;11.20;99.90
49224;DHT22;35050;51.316;5.994;2024-02-21T15:29:34;11.20;99.90
49224;DHT22;35050;51.316;5.994;2024-02-21T15:32:02;11.10;99.90
49224;DHT22;35050;51.316;5.994;2024-02-21T15:34:28;11.10;99.90
49224;DHT22;35050;51.316;5.994;2024-02-21T15:36:53;11.10;99.90
49224;DHT22;35050;51.316;5.994;2024-02-21T15:39:19;11.00;99.90